sensor_id;sensor_type;location;lat;lon;timestamp;pressure;altitude;pressure_sealevel;temperature;humidity
60049;BME280;66154;45.544;6.756;2024-03-02T00:01:44;86074.78;;;1.06;68.93
60049;BME280;66154;45.544;6.756;2024-03-02T00:06:44;86074.47;;;1.00;68.60
60049;BME280;66154;45.544;6.756;2024-03-02T00:11:45;86074.88;;;0.95;69.27
60049;BME280;66154;45.544;6.756;2024-03-02T00:16:45;86081.22;;;0.90;69.20
60049;BME280;66154;45.544;6.756;2024-03-02T00:21:46;86094.53;;;0.89;69.46
60049;BME280;66154;45.544;6.756;2024-03-02T00:26:48;86086.41;;;0.87;68.87
60049;BME280;66154;45.544;6.756;2024-03-02T00:31:48;86086.84;;;0.82;68.20
60049;BME280;66154;45.544;6.756;2024-03-02T00:36:49;86090.56;;;0.77;68.16
60049;BME280;66154;45.544;6.756;2024-03-02T00:41:49;86086.94;;;0.75;68.03
60049;BME280;66154;45.544;6.756;2024-03-02T00:46:50;86093.19;;;0.74;68.58
60049;BME280;66154;45.544;6.756;2024-03-02T00:51:52;86085.88;;;0.69;68.88
60049;BME280;66154;45.544;6.756;2024-03-02T00:56:53;86087.75;;;0.65;67.61
60049;BME280;66154;45.544;6.756;2024-03-02T01:01:56;86089.63;;;0.61;68.63
60049;BME280;66154;45.544;6.756;2024-03-02T01:06:57;86087.84;;;0.58;66.77
60049;BME280;66154;45.544;6.756;2024-03-02T01:11:59;86070.84;;;0.57;66.62
60049;BME280;66154;45.544;6.756;2024-03-02T01:16:59;86072.31;;;0.54;67.21
60049;BME280;66154;45.544;6.756;2024-03-02T01:22:00;86065.75;;;0.50;65.57
60049;BME280;66154;45.544;6.756;2024-03-02T01:27:00;86053.56;;;0.47;67.60
60049;BME280;66154;45.544;6.756;2024-03-02T01:32:01;86053.91;;;0.49;65.98
60049;BME280;66154;45.544;6.756;2024-03-02T01:37:02;86061.66;;;0.49;67.86
60049;BME280;66154;45.544;6.756;2024-03-02T01:42:02;86065.75;;;0.50;67.52
60049;BME280;66154;45.544;6.756;2024-03-02T01:47:03;86060.56;;;0.50;67.19
60049;BME280;66154;45.544;6.756;2024-03-02T01:52:03;86052.47;;;0.48;67.60
60049;BME280;66154;45.544;6.756;2024-03-02T01:57:04;86060.97;;;0.45;67.74
60049;BME280;66154;45.544;6.756;2024-03-02T02:02:05;86056.56;;;0.42;67.43
60049;BME280;66154;45.544;6.756;2024-03-02T02:07:05;86055.88;;;0.38;68.40
60049;BME280;66154;45.544;6.756;2024-03-02T02:12:07;86049.66;;;0.32;67.71
60049;BME280;66154;45.544;6.756;2024-03-02T02:17:08;86042.66;;;0.29;67.75
60049;BME280;66154;45.544;6.756;2024-03-02T02:22:11;86044.53;;;0.25;68.11
60049;BME280;66154;45.544;6.756;2024-03-02T02:27:12;86033.91;;;0.19;65.72
60049;BME280;66154;45.544;6.756;2024-03-02T02:32:15;86016.16;;;0.21;66.61
60049;BME280;66154;45.544;6.756;2024-03-02T02:37:15;86005.81;;;0.21;65.26
60049;BME280;66154;45.544;6.756;2024-03-02T02:42:16;86005.47;;;0.19;66.54
60049;BME280;66154;45.544;6.756;2024-03-02T02:47:16;85998.47;;;0.16;66.00
60049;BME280;66154;45.544;6.756;2024-03-02T02:52:17;85991.47;;;0.17;66.82
60049;BME280;66154;45.544;6.756;2024-03-02T02:57:18;85998.06;;;0.18;68.05
60049;BME280;66154;45.544;6.756;2024-03-02T03:02:19;85994.03;;;0.17;66.19
60049;BME280;66154;45.544;6.756;2024-03-02T03:07:19;85997.72;;;0.16;66.74
60049;BME280;66154;45.544;6.756;2024-03-02T03:12:20;85985.97;;;0.11;67.75
60049;BME280;66154;45.544;6.756;2024-03-02T03:17:23;85985.63;;;0.09;67.85
60049;BME280;66154;45.544;6.756;2024-03-02T03:22:24;85990.09;;;0.05;67.73
60049;BME280;66154;45.544;6.756;2024-03-02T03:27:24;85985.34;;;0.00;68.10
60049;BME280;66154;45.544;6.756;2024-03-02T03:32:24;85977.25;;;-0.02;66.99
60049;BME280;66154;45.544;6.756;2024-03-02T03:37:25;85979.13;;;-0.06;67.40
60049;BME280;66154;45.544;6.756;2024-03-02T03:42:32;85984.28;;;-0.10;66.38
60049;BME280;66154;45.544;6.756;2024-03-02T03:47:33;86002.75;;;-0.11;67.32
60049;BME280;66154;45.544;6.756;2024-03-02T03:52:33;85996.88;;;-0.15;67.45
60049;BME280;66154;45.544;6.756;2024-03-02T03:57:34;85995.47;;;-0.20;67.56
60049;BME280;66154;45.544;6.756;2024-03-02T04:02:34;85989.94;;;-0.22;69.03
60049;BME280;66154;45.544;6.756;2024-03-02T04:07:36;85980.72;;;-0.23;67.42
60049;BME280;66154;45.544;6.756;2024-03-02T04:12:40;85981.09;;;-0.24;66.20
60049;BME280;66154;45.544;6.756;2024-03-02T04:17:40;85973.00;;;-0.26;66.96
60049;BME280;66154;45.544;6.756;2024-03-02T04:22:41;85980.75;;;-0.26;66.64
60049;BME280;66154;45.544;6.756;2024-03-02T04:27:41;86007.69;;;-0.27;66.04
60049;BME280;66154;45.544;6.756;2024-03-02T04:32:42;86008.03;;;-0.22;67.17
60049;BME280;66154;45.544;6.756;2024-03-02T04:37:46;86015.75;;;-0.18;66.41
60049;BME280;66154;45.544;6.756;2024-03-02T04:42:46;86019.84;;;-0.24;65.80
60049;BME280;66154;45.544;6.756;2024-03-02T04:47:47;86013.22;;;-0.29;66.38
60049;BME280;66154;45.544;6.756;2024-03-02T04:52:47;86008.09;;;-0.32;67.46
60049;BME280;66154;45.544;6.756;2024-03-02T04:57:48;85999.25;;;-0.35;65.77
60049;BME280;66154;45.544;6.756;2024-03-02T05:02:50;85997.78;;;-0.36;65.83
60049;BME280;66154;45.544;6.756;2024-03-02T05:07:51;86000.75;;;-0.37;65.62
60049;BME280;66154;45.544;6.756;2024-03-02T05:12:51;86004.41;;;-0.35;66.06
60049;BME280;66154;45.544;6.756;2024-03-02T05:17:59;86020.25;;;-0.29;65.60
60049;BME280;66154;45.544;6.756;2024-03-02T05:23:00;86032.78;;;-0.28;66.58
60049;BME280;66154;45.544;6.756;2024-03-02T05:28:00;86029.84;;;-0.30;67.23
60049;BME280;66154;45.544;6.756;2024-03-02T05:33:01;86024.75;;;-0.37;67.43
60049;BME280;66154;45.544;6.756;2024-03-02T05:38:01;86018.88;;;-0.41;66.94
60049;BME280;66154;45.544;6.756;2024-03-02T05:43:02;86012.22;;;-0.42;66.52
60049;BME280;66154;45.544;6.756;2024-03-02T05:48:03;86008.53;;;-0.41;66.76
60049;BME280;66154;45.544;6.756;2024-03-02T05:53:03;86001.88;;;-0.42;66.99
60049;BME280;66154;45.544;6.756;2024-03-02T05:58:04;86022.94;;;-0.43;68.38
60049;BME280;66154;45.544;6.756;2024-03-02T06:03:07;86013.69;;;-0.44;67.26
60049;BME280;66154;45.544;6.756;2024-03-02T06:08:09;86018.50;;;-0.46;66.85
60049;BME280;66154;45.544;6.756;2024-03-02T06:13:10;86018.50;;;-0.46;67.05
60049;BME280;66154;45.544;6.756;2024-03-02T06:18:10;86019.25;;;-0.46;67.20
60049;BME280;66154;45.544;6.756;2024-03-02T06:23:11;86025.53;;;-0.47;65.77
60049;BME280;66154;45.544;6.756;2024-03-02T06:28:11;86017.03;;;-0.44;65.86
60049;BME280;66154;45.544;6.756;2024-03-02T06:33:12;86020.69;;;-0.41;66.20
60049;BME280;66154;45.544;6.756;2024-03-02T06:38:12;85997.09;;;-0.40;65.65
60049;BME280;66154;45.544;6.756;2024-03-02T06:43:13;85987.47;;;-0.36;65.28
60049;BME280;66154;45.544;6.756;2024-03-02T06:48:14;85991.50;;;-0.35;65.32
60049;BME280;66154;45.544;6.756;2024-03-02T06:53:18;85989.28;;;-0.33;66.23
60049;BME280;66154;45.544;6.756;2024-03-02T06:58:19;85984.06;;;-0.26;65.64
60049;BME280;66154;45.544;6.756;2024-03-02T07:03:20;86000.25;;;-0.18;66.31
60049;BME280;66154;45.544;6.756;2024-03-02T07:08:20;86010.13;;;-0.10;66.34
60049;BME280;66154;45.544;6.756;2024-03-02T07:13:21;86025.25;;;-0.12;67.44
60049;BME280;66154;45.544;6.756;2024-03-02T07:18:21;86013.84;;;-0.11;67.92
60049;BME280;66154;45.544;6.756;2024-03-02T07:23:22;86004.59;;;-0.08;67.00
60049;BME280;66154;45.544;6.756;2024-03-02T07:28:27;85996.06;;;-0.05;66.15
60049;BME280;66154;45.544;6.756;2024-03-02T07:33:28;85989.03;;;-0.01;67.71
60049;BME280;66154;45.544;6.756;2024-03-02T07:38:28;85984.53;;;0.07;66.82
60049;BME280;66154;45.544;6.756;2024-03-02T07:43:30;85981.84;;;0.17;66.81
60049;BME280;66154;45.544;6.756;2024-03-02T07:48:31;85975.44;;;0.32;67.62
60049;BME280;66154;45.544;6.756;2024-03-02T07:53:32;85977.06;;;0.53;66.87
60049;BME280;66154;45.544;6.756;2024-03-02T07:58:33;85969.41;;;0.76;67.21
60049;BME280;66154;45.544;6.756;2024-03-02T08:03:34;85967.66;;;1.00;68.22
60049;BME280;66154;45.544;6.756;2024-03-02T08:08:34;85966.59;;;1.24;67.46
60049;BME280;66154;45.544;6.756;2024-03-02T08:13:35;85961.47;;;1.47;67.94
60049;BME280;66154;45.544;6.756;2024-03-02T08:18:35;85960.44;;;1.67;67.12
60049;BME280;66154;45.544;6.756;2024-03-02T08:23:36;85962.03;;;1.84;66.05
60049;BME280;66154;45.544;6.756;2024-03-02T08:28:37;85953.28;;;1.98;65.99
60049;BME280;66154;45.544;6.756;2024-03-02T08:33:40;85947.56;;;2.10;65.50
60049;BME280;66154;45.544;6.756;2024-03-02T08:38:41;85935.06;;;2.25;65.56
60049;BME280;66154;45.544;6.756;2024-03-02T08:43:42;85930.69;;;2.41;65.14
60049;BME280;66154;45.544;6.756;2024-03-02T08:48:43;85927.66;;;2.66;65.92
60049;BME280;66154;45.544;6.756;2024-03-02T08:53:43;85932.13;;;2.85;67.22
60049;BME280;66154;45.544;6.756;2024-03-02T08:58:44;85929.72;;;2.94;66.41
60049;BME280;66154;45.544;6.756;2024-03-02T09:03:44;85925.38;;;3.07;66.58
60049;BME280;66154;45.544;6.756;2024-03-02T09:08:45;85920.56;;;3.25;66.80
60049;BME280;66154;45.544;6.756;2024-03-02T09:13:45;85915.00;;;3.43;66.42
60049;BME280;66154;45.544;6.756;2024-03-02T09:18:46;85911.28;;;3.60;67.03
60049;BME280;66154;45.544;6.756;2024-03-02T09:23:47;85903.47;;;3.76;66.49
60049;BME280;66154;45.544;6.756;2024-03-02T09:28:48;85898.78;;;3.87;66.02
60049;BME280;66154;45.544;6.756;2024-03-02T09:33:49;85897.78;;;3.97;66.01
60049;BME280;66154;45.544;6.756;2024-03-02T09:38:49;85893.72;;;4.12;66.41
60049;BME280;66154;45.544;6.756;2024-03-02T09:43:50;85892.13;;;4.31;66.08
60049;BME280;66154;45.544;6.756;2024-03-02T09:48:51;85882.66;;;4.53;65.94
60049;BME280;66154;45.544;6.756;2024-03-02T09:53:52;85872.19;;;4.69;64.64
60049;BME280;66154;45.544;6.756;2024-03-02T09:58:54;85858.78;;;4.83;66.54
60049;BME280;66154;45.544;6.756;2024-03-02T10:03:55;85852.78;;;4.99;66.13
60049;BME280;66154;45.544;6.756;2024-03-02T10:08:58;85842.88;;;5.19;63.86
60049;BME280;66154;45.544;6.756;2024-03-02T10:14:09;85839.97;;;5.42;65.38
60049;BME280;66154;45.544;6.756;2024-03-02T10:19:19;85835.59;;;5.64;63.07
60049;BME280;66154;45.544;6.756;2024-03-02T10:24:21;85832.38;;;5.85;64.48
60049;BME280;66154;45.544;6.756;2024-03-02T10:29:21;85822.63;;;5.98;66.11
60049;BME280;66154;45.544;6.756;2024-03-02T10:34:22;85811.75;;;6.12;61.26
60049;BME280;66154;45.544;6.756;2024-03-02T10:39:24;85814.00;;;6.23;65.36
60049;BME280;66154;45.544;6.756;2024-03-02T10:44:25;85806.88;;;6.36;63.97
60049;BME280;66154;45.544;6.756;2024-03-02T10:49:27;85795.09;;;6.53;63.56
60049;BME280;66154;45.544;6.756;2024-03-02T10:54:29;85802.03;;;6.69;65.36
60049;BME280;66154;45.544;6.756;2024-03-02T10:59:36;85786.72;;;6.80;66.16
60049;BME280;66154;45.544;6.756;2024-03-02T11:04:40;85785.75;;;6.86;66.22
60049;BME280;66154;45.544;6.756;2024-03-02T11:09:54;85782.28;;;6.89;64.81
60049;BME280;66154;45.544;6.756;2024-03-02T11:14:58;85775.50;;;7.01;62.89
60049;BME280;66154;45.544;6.756;2024-03-02T11:19:59;85760.78;;;7.16;66.62
60049;BME280;66154;45.544;6.756;2024-03-02T11:25:01;85756.91;;;7.29;66.59
60049;BME280;66154;45.544;6.756;2024-03-02T11:30:02;85744.88;;;7.41;63.71
60049;BME280;66154;45.544;6.756;2024-03-02T11:35:03;85737.25;;;7.56;61.50
60049;BME280;66154;45.544;6.756;2024-03-02T11:40:05;85722.03;;;7.81;64.63
60049;BME280;66154;45.544;6.756;2024-03-02T11:45:08;85711.59;;;8.08;59.25
60049;BME280;66154;45.544;6.756;2024-03-02T11:50:09;85698.25;;;8.24;62.15
60049;BME280;66154;45.544;6.756;2024-03-02T11:55:09;85694.44;;;8.25;59.74
60049;BME280;66154;45.544;6.756;2024-03-02T12:00:17;85681.22;;;8.29;58.94
60049;BME280;66154;45.544;6.756;2024-03-02T12:05:19;85679.31;;;8.48;60.18
60049;BME280;66154;45.544;6.756;2024-03-02T12:10:19;85671.72;;;8.59;58.61
60049;BME280;66154;45.544;6.756;2024-03-02T12:15:23;85661.78;;;8.72;56.57
60049;BME280;66154;45.544;6.756;2024-03-02T12:20:25;85656.25;;;8.79;59.91
60049;BME280;66154;45.544;6.756;2024-03-02T12:25:26;85634.41;;;8.82;57.07
60049;BME280;66154;45.544;6.756;2024-03-02T12:30:31;85640.38;;;8.82;62.58
60049;BME280;66154;45.544;6.756;2024-03-02T12:35:36;85643.69;;;8.92;64.76
60049;BME280;66154;45.544;6.756;2024-03-02T12:40:36;85643.84;;;8.88;54.08
60049;BME280;66154;45.544;6.756;2024-03-02T12:45:37;85643.75;;;9.06;64.62
60049;BME280;66154;45.544;6.756;2024-03-02T12:50:38;85631.03;;;9.23;66.06
60049;BME280;66154;45.544;6.756;2024-03-02T12:55:38;85621.16;;;9.42;62.33
60049;BME280;66154;45.544;6.756;2024-03-02T13:00:39;85613.88;;;9.84;67.05
60049;BME280;66154;45.544;6.756;2024-03-02T13:05:40;85609.94;;;10.27;55.96
60049;BME280;66154;45.544;6.756;2024-03-02T13:10:41;85609.69;;;10.39;62.74
60049;BME280;66154;45.544;6.756;2024-03-02T13:15:41;85613.94;;;10.37;66.48
60049;BME280;66154;45.544;6.756;2024-03-02T13:20:42;85603.13;;;10.20;49.45
60049;BME280;66154;45.544;6.756;2024-03-02T13:25:43;85601.88;;;10.06;54.65
60049;BME280;66154;45.544;6.756;2024-03-02T13:30:44;85602.34;;;10.05;62.86
60049;BME280;66154;45.544;6.756;2024-03-02T13:35:44;85609.34;;;10.08;62.89
60049;BME280;66154;45.544;6.756;2024-03-02T13:40:45;85603.25;;;10.02;50.60
60049;BME280;66154;45.544;6.756;2024-03-02T13:45:45;85600.91;;;10.04;56.28
60049;BME280;66154;45.544;6.756;2024-03-02T13:50:46;85597.09;;;10.05;54.35
60049;BME280;66154;45.544;6.756;2024-03-02T13:55:46;85594.94;;;10.03;60.67
60049;BME280;66154;45.544;6.756;2024-03-02T14:00:48;85600.00;;;10.07;60.80
60049;BME280;66154;45.544;6.756;2024-03-02T14:05:48;85598.50;;;10.15;64.34
60049;BME280;66154;45.544;6.756;2024-03-02T14:10:50;85598.78;;;10.17;62.73
60049;BME280;66154;45.544;6.756;2024-03-02T14:15:50;85592.25;;;10.13;62.08
60049;BME280;66154;45.544;6.756;2024-03-02T14:20:51;85579.84;;;10.13;64.78
60049;BME280;66154;45.544;6.756;2024-03-02T14:25:52;85582.94;;;10.12;59.69
60049;BME280;66154;45.544;6.756;2024-03-02T14:30:53;85589.19;;;10.14;58.45
60049;BME280;66154;45.544;6.756;2024-03-02T14:35:54;85592.13;;;10.07;60.13
60049;BME280;66154;45.544;6.756;2024-03-02T14:40:54;85589.84;;;10.00;56.95
60049;BME280;66154;45.544;6.756;2024-03-02T14:45:55;85585.22;;;9.95;62.28
60049;BME280;66154;45.544;6.756;2024-03-02T14:50:57;85583.84;;;9.85;62.38
60049;BME280;66154;45.544;6.756;2024-03-02T14:55:57;85591.78;;;9.76;61.73
60049;BME280;66154;45.544;6.756;2024-03-02T15:00:58;85589.22;;;9.67;61.53
60049;BME280;66154;45.544;6.756;2024-03-02T15:05:59;85585.94;;;9.57;56.17
60049;BME280;66154;45.544;6.756;2024-03-02T15:10:59;85587.91;;;9.48;61.06
60049;BME280;66154;45.544;6.756;2024-03-02T15:16:00;85584.63;;;9.38;55.31
60049;BME280;66154;45.544;6.756;2024-03-02T15:21:01;85581.31;;;9.29;58.21
60049;BME280;66154;45.544;6.756;2024-03-02T15:26:02;85570.28;;;9.25;59.17
60049;BME280;66154;45.544;6.756;2024-03-02T15:31:03;85567.53;;;9.19;61.39
60049;BME280;66154;45.544;6.756;2024-03-02T15:36:04;85554.03;;;9.11;60.14
60049;BME280;66154;45.544;6.756;2024-03-02T15:41:05;85534.28;;;9.01;58.43
60049;BME280;66154;45.544;6.756;2024-03-02T15:46:06;85540.28;;;8.93;58.75
60049;BME280;66154;45.544;6.756;2024-03-02T15:51:06;85540.47;;;8.89;58.37
60049;BME280;66154;45.544;6.756;2024-03-02T15:56:07;85541.81;;;8.85;59.13
60049;BME280;66154;45.544;6.756;2024-03-02T16:01:07;85535.59;;;8.73;58.22
60049;BME280;66154;45.544;6.756;2024-03-02T16:06:08;85536.25;;;8.59;57.50
60049;BME280;66154;45.544;6.756;2024-03-02T16:11:08;85545.03;;;8.47;60.95
60049;BME280;66154;45.544;6.756;2024-03-02T16:16:11;85533.84;;;8.38;59.99
60049;BME280;66154;45.544;6.756;2024-03-02T16:21:12;85531.84;;;8.33;60.22
60049;BME280;66154;45.544;6.756;2024-03-02T16:26:13;85540.72;;;8.26;60.63
60049;BME280;66154;45.544;6.756;2024-03-02T16:31:13;85535.06;;;8.18;60.26
60049;BME280;66154;45.544;6.756;2024-03-02T16:36:15;85527.94;;;8.10;60.68
60049;BME280;66154;45.544;6.756;2024-03-02T16:41:16;85527.69;;;7.99;60.97
60049;BME280;66154;45.544;6.756;2024-03-02T16:46:18;85539.63;;;7.91;62.69
60049;BME280;66154;45.544;6.756;2024-03-02T16:51:18;85543.44;;;7.81;60.51
60049;BME280;66154;45.544;6.756;2024-03-02T16:56:19;85549.38;;;7.72;61.02
60049;BME280;66154;45.544;6.756;2024-03-02T17:01:19;85543.72;;;7.65;61.15
60049;BME280;66154;45.544;6.756;2024-03-02T17:06:20;85546.38;;;7.56;61.67
60049;BME280;66154;45.544;6.756;2024-03-02T17:11:20;85546.34;;;7.47;61.43
60049;BME280;66154;45.544;6.756;2024-03-02T17:16:21;85554.50;;;7.40;61.40
60049;BME280;66154;45.544;6.756;2024-03-02T17:21:21;85533.59;;;7.30;61.49
60049;BME280;66154;45.544;6.756;2024-03-02T17:26:23;85547.66;;;7.24;61.84
60049;BME280;66154;45.544;6.756;2024-03-02T17:31:24;85561.44;;;7.15;62.08
60049;BME280;66154;45.544;6.756;2024-03-02T17:36:24;85551.72;;;7.07;61.96
60049;BME280;66154;45.544;6.756;2024-03-02T17:41:24;85552.00;;;7.00;61.23
60049;BME280;66154;45.544;6.756;2024-03-02T17:46:25;85570.84;;;6.95;61.92
60049;BME280;66154;45.544;6.756;2024-03-02T17:51:25;85558.50;;;6.86;61.70
60049;BME280;66154;45.544;6.756;2024-03-02T17:56:27;85564.00;;;6.79;61.55
60049;BME280;66154;45.544;6.756;2024-03-02T18:01:27;85573.69;;;6.70;62.07
60049;BME280;66154;45.544;6.756;2024-03-02T18:06:28;85556.13;;;6.61;62.35
60049;BME280;66154;45.544;6.756;2024-03-02T18:11:28;85558.56;;;6.56;61.64
60049;BME280;66154;45.544;6.756;2024-03-02T18:16:29;85562.91;;;6.50;61.73
60049;BME280;66154;45.544;6.756;2024-03-02T18:21:29;85568.81;;;6.41;62.04
60049;BME280;66154;45.544;6.756;2024-03-02T18:26:30;85566.19;;;6.32;62.27
60049;BME280;66154;45.544;6.756;2024-03-02T18:31:33;85565.41;;;6.22;61.68
60049;BME280;66154;45.544;6.756;2024-03-02T18:36:33;85555.66;;;6.14;61.72
60049;BME280;66154;45.544;6.756;2024-03-02T18:41:34;85545.50;;;6.07;61.41
60049;BME280;66154;45.544;6.756;2024-03-02T18:46:34;85542.13;;;5.97;61.67
60049;BME280;66154;45.544;6.756;2024-03-02T18:51:35;85523.38;;;5.90;61.87
60049;BME280;66154;45.544;6.756;2024-03-02T18:56:36;85531.31;;;5.86;61.66
60049;BME280;66154;45.544;6.756;2024-03-02T19:01:37;85533.44;;;5.79;62.15
60049;BME280;66154;45.544;6.756;2024-03-02T19:06:37;85532.94;;;5.71;61.46
60049;BME280;66154;45.544;6.756;2024-03-02T19:11:38;85527.56;;;5.66;61.62
60049;BME280;66154;45.544;6.756;2024-03-02T19:16:38;85518.84;;;5.60;61.39
60049;BME280;66154;45.544;6.756;2024-03-02T19:21:39;85528.97;;;5.57;62.59
60049;BME280;66154;45.544;6.756;2024-03-02T19:26:39;85517.63;;;5.51;61.74
60049;BME280;66154;45.544;6.756;2024-03-02T19:31:41;85505.47;;;5.48;62.00
60049;BME280;66154;45.544;6.756;2024-03-02T19:36:42;85510.38;;;5.46;61.65
60049;BME280;66154;45.544;6.756;2024-03-02T19:41:42;85506.72;;;5.44;61.67
60049;BME280;66154;45.544;6.756;2024-03-02T19:46:43;85507.47;;;5.44;61.33
60049;BME280;66154;45.544;6.756;2024-03-02T19:51:43;85498.50;;;5.45;61.94
60049;BME280;66154;45.544;6.756;2024-03-02T19:56:44;85499.94;;;5.46;62.09
60049;BME280;66154;45.544;6.756;2024-03-02T20:01:45;85499.78;;;5.41;61.91
60049;BME280;66154;45.544;6.756;2024-03-02T20:06:45;85512.94;;;5.37;61.62
60049;BME280;66154;45.544;6.756;2024-03-02T20:11:46;85512.94;;;5.37;61.73
60049;BME280;66154;45.544;6.756;2024-03-02T20:16:49;85513.38;;;5.36;62.20
60049;BME280;66154;45.544;6.756;2024-03-02T20:21:50;85523.06;;;5.35;62.20
60049;BME280;66154;45.544;6.756;2024-03-02T20:26:50;85535.81;;;5.42;61.23
60049;BME280;66154;45.544;6.756;2024-03-02T20:31:51;85531.09;;;5.50;60.33
60049;BME280;66154;45.544;6.756;2024-03-02T20:36:51;85520.97;;;5.52;61.72
60049;BME280;66154;45.544;6.756;2024-03-02T20:41:52;85520.25;;;5.51;62.29
60049;BME280;66154;45.544;6.756;2024-03-02T20:46:53;85510.13;;;5.53;61.91
60049;BME280;66154;45.544;6.756;2024-03-02T20:51:54;85516.78;;;5.54;61.65
60049;BME280;66154;45.544;6.756;2024-03-02T20:56:54;85513.88;;;5.52;62.93
60049;BME280;66154;45.544;6.756;2024-03-02T21:01:55;85507.94;;;5.52;61.04
60049;BME280;66154;45.544;6.756;2024-03-02T21:06:56;85502.00;;;5.51;60.73
60049;BME280;66154;45.544;6.756;2024-03-02T21:11:56;85522.00;;;5.54;57.92
60049;BME280;66154;45.544;6.756;2024-03-02T21:16:57;85503.19;;;5.60;59.41
60049;BME280;66154;45.544;6.756;2024-03-02T21:21:57;85510.63;;;5.61;56.44
60049;BME280;66154;45.544;6.756;2024-03-02T21:26:58;85508.41;;;5.60;61.50
60049;BME280;66154;45.544;6.756;2024-03-02T21:31:58;85513.03;;;5.55;61.29
60049;BME280;66154;45.544;6.756;2024-03-02T21:36:59;85512.41;;;5.51;60.98
60049;BME280;66154;45.544;6.756;2024-03-02T21:42:00;85519.53;;;5.51;62.92
60049;BME280;66154;45.544;6.756;2024-03-02T21:47:00;85512.19;;;5.59;59.61
60049;BME280;66154;45.544;6.756;2024-03-02T21:52:01;85502.66;;;5.65;60.58
60049;BME280;66154;45.544;6.756;2024-03-02T21:57:01;85491.25;;;5.71;62.17
60049;BME280;66154;45.544;6.756;2024-03-02T22:02:03;85481.84;;;5.74;59.68
60049;BME280;66154;45.544;6.756;2024-03-02T22:07:03;85473.47;;;5.79;63.30
60049;BME280;66154;45.544;6.756;2024-03-02T22:12:04;85469.16;;;5.85;61.01
60049;BME280;66154;45.544;6.756;2024-03-02T22:17:05;85484.28;;;5.90;59.38
60049;BME280;66154;45.544;6.756;2024-03-02T22:22:05;85469.75;;;5.89;59.73
60049;BME280;66154;45.544;6.756;2024-03-02T22:27:06;85479.06;;;5.90;60.63
60049;BME280;66154;45.544;6.756;2024-03-02T22:32:07;85461.81;;;5.92;55.99
60049;BME280;66154;45.544;6.756;2024-03-02T22:37:07;85468.50;;;5.93;59.68
60049;BME280;66154;45.544;6.756;2024-03-02T22:42:08;85460.22;;;5.95;57.93
60049;BME280;66154;45.544;6.756;2024-03-02T22:47:08;85449.78;;;5.95;60.79
60049;BME280;66154;45.544;6.756;2024-03-02T22:52:09;85429.06;;;5.91;61.59
60049;BME280;66154;45.544;6.756;2024-03-02T22:57:09;85423.84;;;5.91;57.91
60049;BME280;66154;45.544;6.756;2024-03-02T23:02:17;85426.03;;;5.93;61.07
60049;BME280;66154;45.544;6.756;2024-03-02T23:07:17;85430.09;;;5.94;60.52
60049;BME280;66154;45.544;6.756;2024-03-02T23:12:22;85419.97;;;5.96;57.08
60049;BME280;66154;45.544;6.756;2024-03-02T23:17:22;85419.25;;;6.04;56.85
60049;BME280;66154;45.544;6.756;2024-03-02T23:22:23;85430.56;;;6.10;57.35
60049;BME280;66154;45.544;6.756;2024-03-02T23:27:23;85409.84;;;6.16;61.43
60049;BME280;66154;45.544;6.756;2024-03-02T23:32:24;85416.84;;;6.19;61.06
60049;BME280;66154;45.544;6.756;2024-03-02T23:37:24;85419.72;;;6.21;57.96
60049;BME280;66154;45.544;6.756;2024-03-02T23:42:26;85415.81;;;6.25;59.37
60049;BME280;66154;45.544;6.756;2024-03-02T23:47:27;85402.91;;;6.31;60.27
60049;BME280;66154;45.544;6.756;2024-03-02T23:52:28;85414.81;;;6.32;60.31
60049;BME280;66154;45.544;6.756;2024-03-02T23:57:28;85412.22;;;6.32;54.73
